createdAt,value
2022-12-25T00:02:20.946Z,8.46
2022-12-25T00:04:47.628Z,8.48
2022-12-25T00:07:14.444Z,8.39
2022-12-25T00:09:41.089Z,8.30
2022-12-25T00:12:07.769Z,8.46
2022-12-25T00:14:34.494Z,8.41
2022-12-25T00:17:01.130Z,8.60
2022-12-25T00:19:27.779Z,8.57
2022-12-25T00:21:54.843Z,8.45
2022-12-25T00:24:21.499Z,8.44
2022-12-25T00:26:48.175Z,8.59
2022-12-25T00:29:14.874Z,8.65
2022-12-25T00:31:41.623Z,8.67
2022-12-25T00:34:08.362Z,8.62
2022-12-25T00:36:41.401Z,8.44
2022-12-25T00:39:08.644Z,8.50
2022-12-25T00:41:54.096Z,8.48
2022-12-25T00:44:20.790Z,8.64
2022-12-25T00:46:47.525Z,8.42
2022-12-25T00:49:14.480Z,8.46
2022-12-25T00:51:41.357Z,8.41
2022-12-25T00:54:08.382Z,8.51
2022-12-25T00:56:35.601Z,8.62
2022-12-25T00:59:02.223Z,8.51
2022-12-25T01:01:29.003Z,8.50
2022-12-25T01:03:56.059Z,8.67
2022-12-25T01:06:22.785Z,8.46
2022-12-25T01:09:08.034Z,8.60
2022-12-25T01:11:35.032Z,8.54
2022-12-25T01:14:02.278Z,8.67
2022-12-25T01:16:29.451Z,8.29
2022-12-25T01:18:56.484Z,8.47
2022-12-25T01:21:23.858Z,8.25
2022-12-25T01:23:52.856Z,8.57
2022-12-25T01:26:22.021Z,8.40
2022-12-25T01:28:49.760Z,8.51
2022-12-25T01:31:19.175Z,8.45
2022-12-25T01:33:47.047Z,8.57
2022-12-25T01:36:15.067Z,8.81
2022-12-25T01:38:43.358Z,8.60
2022-12-25T01:41:12.266Z,8.47
2022-12-25T01:43:57.600Z,8.14
2022-12-25T01:46:24.349Z,8.36
2022-12-25T01:48:53.739Z,8.30
2022-12-25T01:51:28.915Z,8.42
2022-12-25T01:53:59.026Z,8.26
2022-12-25T01:56:27.677Z,8.16
2022-12-25T01:58:56.332Z,8.17
2022-12-25T02:01:23.182Z,8.22
2022-12-25T02:03:49.963Z,8.33
2022-12-25T02:06:16.635Z,8.42
2022-12-25T02:08:43.569Z,8.57
2022-12-25T02:11:30.180Z,8.33
2022-12-25T02:13:56.875Z,8.29
2022-12-25T02:16:30.057Z,8.57
2022-12-25T02:19:00.745Z,8.46
2022-12-25T02:21:58.707Z,8.39
2022-12-25T02:24:44.565Z,8.26
2022-12-25T02:27:14.173Z,8.10
2022-12-25T02:30:06.648Z,7.98
2022-12-25T02:32:50.382Z,7.88
2022-12-25T02:35:27.960Z,7.97
2022-12-25T02:38:11.960Z,8.02
2022-12-25T02:40:47.491Z,8.01
2022-12-25T02:43:47.792Z,7.93
2022-12-25T02:46:35.972Z,7.78
2022-12-25T02:49:26.324Z,7.65
2022-12-25T02:52:18.207Z,7.73
2022-12-25T02:55:11.345Z,7.66
2022-12-25T02:58:02.755Z,7.79
2022-12-25T03:00:51.203Z,7.66
2022-12-25T03:03:39.216Z,7.62
2022-12-25T03:06:26.973Z,7.50
2022-12-25T03:09:18.512Z,7.51
2022-12-25T03:11:47.903Z,7.62
2022-12-25T03:14:33.134Z,7.58
2022-12-25T03:17:01.384Z,7.64
2022-12-25T03:20:06.694Z,7.69
2022-12-25T03:22:52.327Z,7.65
2022-12-25T03:25:38.062Z,7.63
2022-12-25T03:28:06.329Z,7.79
2022-12-25T03:31:05.485Z,7.59
2022-12-25T03:33:46.256Z,7.84
2022-12-25T03:36:15.958Z,7.85
2022-12-25T03:39:05.275Z,7.76
2022-12-25T03:42:08.056Z,7.82
2022-12-25T03:45:25.413Z,7.74
2022-12-25T03:48:13.509Z,7.78
2022-12-25T03:51:11.763Z,7.84
2022-12-25T03:54:14.931Z,7.77
2022-12-25T03:57:01.784Z,7.73
2022-12-25T03:59:47.583Z,7.62
2022-12-25T04:02:32.861Z,7.74
2022-12-25T04:05:18.148Z,7.41
2022-12-25T04:08:03.121Z,7.59
2022-12-25T04:10:48.549Z,7.75
2022-12-25T04:13:35.075Z,7.68
2022-12-25T04:16:20.398Z,7.94
2022-12-25T04:19:05.273Z,7.78
2022-12-25T04:21:50.866Z,7.61
2022-12-25T04:24:36.078Z,7.66
2022-12-25T04:27:21.243Z,7.81
2022-12-25T04:30:06.471Z,7.90
2022-12-25T04:32:51.691Z,8.03
2022-12-25T04:35:37.005Z,7.72
2022-12-25T04:38:03.698Z,7.83
2022-12-25T04:40:30.380Z,7.81
2022-12-25T04:42:57.071Z,7.77
2022-12-25T04:45:23.829Z,7.73
2022-12-25T04:47:50.536Z,7.97
2022-12-25T04:50:17.280Z,7.59
2022-12-25T04:52:44.048Z,7.60
2022-12-25T04:55:11.828Z,7.83
2022-12-25T04:57:39.795Z,7.59
2022-12-25T05:00:07.134Z,7.75
2022-12-25T05:02:34.521Z,7.66
2022-12-25T05:05:01.444Z,7.66
2022-12-25T05:07:28.203Z,7.49
2022-12-25T05:09:54.827Z,7.75
2022-12-25T05:12:21.534Z,7.70
2022-12-25T05:14:48.273Z,7.70
2022-12-25T05:17:14.952Z,7.73
2022-12-25T05:19:42.907Z,7.45
2022-12-25T05:22:09.745Z,7.59
2022-12-25T05:24:36.475Z,7.53
2022-12-25T05:27:03.166Z,7.43
2022-12-25T05:29:30.071Z,7.57
2022-12-25T05:31:56.819Z,7.34
2022-12-25T05:34:23.819Z,7.53
2022-12-25T05:36:50.708Z,7.54
2022-12-25T05:39:17.415Z,7.63
2022-12-25T05:41:44.117Z,7.74
2022-12-25T05:44:10.822Z,7.72
2022-12-25T05:46:37.531Z,7.73
2022-12-25T05:49:05.933Z,7.63
2022-12-25T05:51:32.760Z,7.49
2022-12-25T05:53:59.736Z,7.73
2022-12-25T05:56:26.867Z,7.69
2022-12-25T05:58:53.792Z,7.76
2022-12-25T06:01:23.581Z,7.77
2022-12-25T06:03:50.548Z,7.80
2022-12-25T06:06:17.316Z,7.88
2022-12-25T06:08:44.569Z,7.72
2022-12-25T06:11:13.881Z,7.59
2022-12-25T06:13:41.296Z,7.88
2022-12-25T06:16:10.419Z,7.86
2022-12-25T06:18:42.582Z,7.74
2022-12-25T06:21:10.854Z,7.83
2022-12-25T06:23:38.503Z,7.94
2022-12-25T06:26:07.558Z,8.13
2022-12-25T06:28:34.501Z,8.03
2022-12-25T06:31:16.408Z,8.06
2022-12-25T06:33:43.568Z,8.08
2022-12-25T06:36:19.037Z,8.09
2022-12-25T06:38:45.972Z,8.15
2022-12-25T06:41:18.004Z,8.12
2022-12-25T06:43:51.423Z,8.12
2022-12-25T06:46:19.039Z,8.08
2022-12-25T06:48:49.426Z,7.94
2022-12-25T06:51:18.130Z,8.15
2022-12-25T06:53:44.778Z,8.14
2022-12-25T06:56:15.779Z,8.19
2022-12-25T06:58:44.582Z,8.08
2022-12-25T07:01:17.136Z,8.13
2022-12-25T07:03:45.579Z,8.17
2022-12-25T07:06:12.966Z,8.14
2022-12-25T07:08:39.753Z,8.14
2022-12-25T07:11:06.836Z,7.94
2022-12-25T07:13:33.618Z,8.16
2022-12-25T07:16:02.680Z,8.37
2022-12-25T07:18:30.336Z,8.40
2022-12-25T07:20:59.457Z,8.44
2022-12-25T07:23:26.987Z,8.42
2022-12-25T07:26:03.717Z,8.57
2022-12-25T07:28:31.436Z,8.32
2022-12-25T07:31:06.515Z,8.37
2022-12-25T07:33:34.104Z,8.52
2022-12-25T07:36:01.161Z,8.36
2022-12-25T07:38:28.019Z,8.21
2022-12-25T07:40:54.810Z,8.30
2022-12-25T07:43:21.637Z,8.55
2022-12-25T07:45:48.493Z,8.35
2022-12-25T07:48:16.783Z,8.10
2022-12-25T07:50:43.860Z,8.40
2022-12-25T07:53:10.704Z,8.00
2022-12-25T07:55:37.416Z,8.37
2022-12-25T07:58:04.179Z,8.46
2022-12-25T08:00:34.038Z,8.45
2022-12-25T08:03:01.369Z,8.07
2022-12-25T08:05:28.122Z,8.20
2022-12-25T08:07:57.923Z,8.54
2022-12-25T08:10:25.273Z,8.39
2022-12-25T08:12:52.185Z,8.27
2022-12-25T08:15:18.932Z,8.54
2022-12-25T08:17:45.755Z,8.68
2022-12-25T08:20:12.696Z,8.48
2022-12-25T08:22:39.528Z,8.46
2022-12-25T08:25:06.489Z,8.66
2022-12-25T08:27:34.142Z,8.48
2022-12-25T08:30:00.862Z,8.33
2022-12-25T08:32:27.599Z,8.51
2022-12-25T08:34:54.331Z,8.42
2022-12-25T08:37:21.054Z,8.45
2022-12-25T08:39:47.739Z,8.14
2022-12-25T08:42:15.393Z,8.32
2022-12-25T08:44:42.160Z,8.44
2022-12-25T08:47:08.970Z,8.18
2022-12-25T08:49:36.695Z,8.45
2022-12-25T08:52:03.655Z,8.52
2022-12-25T08:54:32.606Z,8.47
2022-12-25T08:57:02.953Z,8.42
2022-12-25T08:59:30.209Z,8.23
2022-12-25T09:01:57.017Z,8.07
2022-12-25T09:04:23.804Z,8.29
2022-12-25T09:06:51.262Z,8.39
2022-12-25T09:09:18.003Z,8.22
2022-12-25T09:11:44.750Z,8.45
2022-12-25T09:14:13.803Z,8.08
2022-12-25T09:16:40.724Z,8.29
2022-12-25T09:19:07.431Z,8.43
2022-12-25T09:21:34.301Z,8.18
2022-12-25T09:24:01.028Z,8.40
2022-12-25T09:26:27.929Z,8.54
2022-12-25T09:28:54.800Z,8.42
2022-12-25T09:31:22.918Z,8.77
2022-12-25T09:33:51.424Z,8.74
2022-12-25T09:36:18.363Z,8.62
2022-12-25T09:38:45.002Z,8.51
2022-12-25T09:41:17.759Z,8.84
2022-12-25T09:44:13.151Z,8.58
2022-12-25T09:46:44.931Z,8.45
2022-12-25T09:49:24.130Z,8.56
2022-12-25T09:51:58.253Z,8.30
2022-12-25T09:54:39.716Z,8.32
2022-12-25T09:57:12.037Z,8.37
2022-12-25T09:59:39.499Z,8.72
2022-12-25T10:02:34.766Z,8.69
2022-12-25T10:05:04.573Z,8.69
2022-12-25T10:07:54.714Z,8.48
2022-12-25T10:10:39.108Z,8.23
2022-12-25T10:13:36.869Z,8.61
2022-12-25T10:16:29.010Z,8.31
2022-12-25T10:19:24.549Z,8.73
2022-12-25T10:22:01.308Z,8.80
2022-12-25T10:24:41.031Z,8.80
2022-12-25T10:27:17.521Z,8.69
2022-12-25T10:29:47.488Z,8.85
2022-12-25T10:32:14.288Z,8.64
2022-12-25T10:34:43.199Z,8.71
2022-12-25T10:37:12.739Z,8.50
2022-12-25T10:39:45.974Z,8.74
2022-12-25T10:42:41.368Z,8.50
2022-12-25T10:45:09.450Z,8.60
2022-12-25T10:47:42.024Z,8.60
2022-12-25T10:50:23.621Z,8.87
2022-12-25T10:53:17.058Z,8.74
2022-12-25T10:55:53.587Z,8.60
2022-12-25T10:58:20.862Z,8.38
2022-12-25T11:00:59.788Z,8.79
2022-12-25T11:03:39.822Z,9.01
2022-12-25T11:06:24.039Z,8.64
2022-12-25T11:08:54.951Z,9.08
2022-12-25T11:11:22.537Z,8.73
2022-12-25T11:13:52.676Z,9.08
2022-12-25T11:16:35.579Z,8.98
2022-12-25T11:19:02.892Z,9.09
2022-12-25T11:21:36.808Z,9.32
2022-12-25T11:24:06.158Z,9.41
2022-12-25T11:26:58.015Z,9.53
2022-12-25T11:29:30.072Z,9.27
2022-12-25T11:32:00.233Z,9.50
2022-12-25T11:34:35.552Z,9.08
2022-12-25T11:37:03.908Z,9.16
2022-12-25T11:39:36.416Z,9.35
2022-12-25T11:42:26.982Z,9.17
2022-12-25T11:45:00.463Z,9.45
2022-12-25T11:47:48.743Z,9.42
2022-12-25T11:50:35.249Z,8.97
2022-12-25T11:53:06.637Z,9.31
2022-12-25T11:55:50.004Z,9.41
2022-12-25T11:58:27.044Z,9.02
2022-12-25T12:00:57.487Z,9.32
2022-12-25T12:03:37.807Z,9.13
2022-12-25T12:06:33.860Z,9.47
2022-12-25T12:09:24.639Z,9.31
2022-12-25T12:12:11.265Z,9.50
2022-12-25T12:14:49.878Z,9.50
2022-12-25T12:17:18.658Z,9.62
2022-12-25T12:19:45.573Z,9.60
2022-12-25T12:22:28.151Z,9.36
2022-12-25T12:25:00.170Z,9.45
2022-12-25T12:27:40.639Z,9.50
2022-12-25T12:30:27.148Z,9.50
2022-12-25T12:32:58.749Z,9.46
2022-12-25T12:35:31.816Z,9.78
2022-12-25T12:38:06.979Z,9.80
2022-12-25T12:40:44.370Z,9.75
2022-12-25T12:43:28.758Z,9.99
2022-12-25T12:45:58.107Z,9.93
2022-12-25T12:48:26.848Z,9.65
2022-12-25T12:51:05.415Z,9.96
2022-12-25T12:53:33.094Z,9.83
2022-12-25T12:56:10.156Z,9.90
2022-12-25T12:58:40.520Z,9.83
2022-12-25T13:01:26.918Z,10.02
2022-12-25T13:04:06.471Z,10.06
2022-12-25T13:06:42.329Z,10.10
2022-12-25T13:09:32.942Z,10.15
2022-12-25T13:12:00.142Z,9.86
2022-12-25T13:14:27.596Z,10.06
2022-12-25T13:16:54.957Z,10.03
2022-12-25T13:19:25.075Z,10.05
2022-12-25T13:21:57.047Z,9.98
2022-12-25T13:24:30.576Z,9.91
2022-12-25T13:26:58.221Z,9.79
2022-12-25T13:29:35.408Z,9.94
2022-12-25T13:32:04.911Z,9.47
2022-12-25T13:34:37.545Z,9.61
2022-12-25T13:37:14.592Z,9.34
2022-12-25T13:39:51.649Z,9.69
2022-12-25T13:42:21.488Z,9.58
2022-12-25T13:44:50.652Z,9.59
2022-12-25T13:47:32.571Z,9.75
2022-12-25T13:50:01.454Z,9.33
2022-12-25T13:52:32.647Z,9.45
2022-12-25T13:55:17.188Z,9.61
2022-12-25T13:57:57.980Z,9.54
2022-12-25T14:00:40.363Z,9.20
2022-12-25T14:03:14.205Z,9.64
2022-12-25T14:05:43.387Z,9.62
2022-12-25T14:08:16.516Z,9.26
2022-12-25T14:10:46.182Z,9.43
2022-12-25T14:13:15.745Z,9.47
2022-12-25T14:15:45.116Z,9.42
2022-12-25T14:18:16.208Z,9.39
2022-12-25T14:20:57.169Z,9.61
2022-12-25T14:23:24.608Z,9.21
2022-12-25T14:25:52.059Z,9.15
2022-12-25T14:28:25.898Z,9.11
2022-12-25T14:30:54.634Z,9.41
2022-12-25T14:33:24.510Z,8.95
2022-12-25T14:35:52.357Z,9.12
2022-12-25T14:38:24.407Z,9.39
2022-12-25T14:41:02.763Z,9.35
2022-12-25T14:43:30.877Z,9.13
2022-12-25T14:46:00.234Z,9.45
2022-12-25T14:48:32.596Z,9.06
2022-12-25T14:51:03.696Z,8.73
2022-12-25T14:53:38.376Z,9.01
2022-12-25T14:56:06.000Z,8.76
2022-12-25T14:58:38.229Z,8.74
2022-12-25T15:01:05.316Z,8.96
2022-12-25T15:03:38.791Z,8.69
2022-12-25T15:06:07.080Z,8.95
2022-12-25T15:08:35.801Z,9.05
2022-12-25T15:11:03.614Z,8.86
2022-12-25T15:13:31.835Z,9.14
2022-12-25T15:16:09.107Z,9.17
2022-12-25T15:18:43.612Z,9.09
2022-12-25T15:21:29.564Z,9.13
2022-12-25T15:23:58.113Z,9.15
2022-12-25T15:26:26.604Z,9.03
2022-12-25T15:28:53.470Z,8.86
2022-12-25T15:31:20.783Z,9.02
2022-12-25T15:33:48.221Z,8.85
2022-12-25T15:36:15.085Z,8.99
2022-12-25T15:38:41.971Z,8.85
2022-12-25T15:41:36.939Z,9.00
2022-12-25T15:44:05.085Z,8.91
2022-12-25T15:46:32.315Z,8.66
2022-12-25T15:48:59.143Z,8.51
2022-12-25T15:51:26.388Z,8.90
2022-12-25T15:53:53.044Z,8.81
2022-12-25T15:56:19.889Z,8.77
2022-12-25T15:58:46.625Z,8.62
2022-12-25T16:01:17.753Z,8.50
2022-12-25T16:03:45.315Z,8.48
2022-12-25T16:06:14.623Z,8.84
2022-12-25T16:08:42.298Z,8.59
2022-12-25T16:11:09.978Z,8.83
2022-12-25T16:13:37.338Z,8.79
2022-12-25T16:16:05.194Z,8.57
2022-12-25T16:18:31.993Z,8.33
2022-12-25T16:20:59.658Z,8.26
2022-12-25T16:23:26.403Z,8.39
2022-12-25T16:25:53.104Z,8.20
2022-12-25T16:28:19.789Z,8.22
2022-12-25T16:30:46.565Z,8.08
2022-12-25T16:33:13.332Z,7.94
2022-12-25T16:35:40.115Z,8.35
2022-12-25T16:38:07.052Z,8.22
2022-12-25T16:40:34.164Z,8.32
2022-12-25T16:43:00.986Z,8.17
2022-12-25T16:45:28.037Z,8.39
2022-12-25T16:47:56.616Z,8.03
2022-12-25T16:50:23.955Z,8.10
2022-12-25T16:52:50.836Z,8.24
2022-12-25T16:55:17.603Z,8.03
2022-12-25T16:57:47.810Z,8.04
2022-12-25T17:00:15.065Z,8.08
2022-12-25T17:02:42.003Z,7.95
2022-12-25T17:05:09.479Z,8.07
2022-12-25T17:07:37.629Z,8.05
2022-12-25T17:10:06.035Z,8.29
2022-12-25T17:12:34.166Z,8.01
2022-12-25T17:15:00.921Z,7.97
2022-12-25T17:17:27.623Z,7.94
2022-12-25T17:19:54.299Z,8.10
2022-12-25T17:22:21.042Z,8.08
2022-12-25T17:24:47.759Z,7.98
2022-12-25T17:27:14.461Z,7.97
2022-12-25T17:29:41.262Z,8.12
2022-12-25T17:32:08.895Z,8.17
2022-12-25T17:34:35.862Z,7.92
2022-12-25T17:37:02.814Z,7.93
2022-12-25T17:39:29.573Z,8.09
2022-12-25T17:41:56.429Z,8.07
2022-12-25T17:44:23.702Z,8.27
2022-12-25T17:46:51.258Z,8.00
2022-12-25T17:49:21.095Z,8.15
2022-12-25T17:51:48.223Z,7.94
2022-12-25T17:54:15.136Z,8.22
2022-12-25T17:56:41.909Z,7.93
2022-12-25T17:59:10.631Z,8.01
2022-12-25T18:01:38.642Z,7.93
2022-12-25T18:04:06.735Z,8.01
2022-12-25T18:06:35.720Z,8.31
2022-12-25T18:09:02.710Z,8.07
2022-12-25T18:11:33.223Z,7.91
2022-12-25T18:14:05.371Z,7.92
2022-12-25T18:16:35.653Z,7.92
2022-12-25T18:19:02.903Z,8.20
2022-12-25T18:21:30.600Z,7.89
2022-12-25T18:23:57.365Z,7.88
2022-12-25T18:26:26.034Z,7.98
2022-12-25T18:28:52.975Z,8.23
2022-12-25T18:31:22.784Z,7.27
2022-12-25T18:33:50.573Z,7.96
2022-12-25T18:36:20.494Z,8.10
2022-12-25T18:38:49.150Z,8.18
2022-12-25T18:41:16.763Z,7.88
2022-12-25T18:43:52.061Z,7.91
2022-12-25T18:46:24.184Z,8.02
2022-12-25T18:48:51.760Z,7.95
2022-12-25T18:51:18.741Z,7.88
2022-12-25T18:53:45.576Z,7.98
2022-12-25T18:56:15.699Z,7.85
2022-12-25T18:58:43.710Z,7.84
2022-12-25T19:01:21.989Z,7.75
2022-12-25T19:03:51.128Z,7.53
2022-12-25T19:06:25.930Z,7.94
2022-12-25T19:08:53.633Z,7.92
2022-12-25T19:11:21.372Z,8.02
2022-12-25T19:13:48.322Z,7.88
2022-12-25T19:16:15.327Z,7.76
2022-12-25T19:18:42.852Z,7.91
2022-12-25T19:21:10.591Z,7.98
2022-12-25T19:23:40.799Z,7.47
2022-12-25T19:26:09.735Z,7.60
2022-12-25T19:28:37.697Z,7.76
2022-12-25T19:31:09.876Z,7.52
2022-12-25T19:33:38.575Z,7.80
2022-12-25T19:36:09.659Z,7.75
2022-12-25T19:38:36.813Z,7.65
2022-12-25T19:41:08.276Z,7.52
2022-12-25T19:43:39.380Z,7.65
2022-12-25T19:46:07.974Z,7.44
2022-12-25T19:48:36.030Z,7.35
2022-12-25T19:51:02.769Z,7.37
2022-12-25T19:53:30.532Z,7.53
2022-12-25T19:56:01.829Z,7.68
2022-12-25T19:58:29.763Z,7.26
2022-12-25T20:01:01.137Z,7.52
2022-12-25T20:03:28.401Z,7.43
2022-12-25T20:05:55.178Z,7.49
2022-12-25T20:08:22.181Z,7.23
2022-12-25T20:10:49.334Z,7.53
2022-12-25T20:13:16.385Z,7.69
2022-12-25T20:15:43.360Z,7.67
2022-12-25T20:18:10.161Z,7.55
2022-12-25T20:20:36.819Z,7.69
2022-12-25T20:23:03.570Z,7.61
2022-12-25T20:25:30.289Z,7.53
2022-12-25T20:27:57.298Z,7.52
2022-12-25T20:30:24.043Z,7.58
2022-12-25T20:32:50.966Z,7.50
2022-12-25T20:35:17.810Z,7.44
2022-12-25T20:37:44.550Z,7.28
2022-12-25T20:40:12.434Z,7.28
2022-12-25T20:42:39.301Z,6.95
2022-12-25T20:45:07.694Z,6.73
2022-12-25T20:47:35.271Z,6.84
2022-12-25T20:50:02.147Z,6.54
2022-12-25T20:52:28.877Z,6.55
2022-12-25T20:54:55.561Z,6.82
2022-12-25T20:57:22.266Z,6.69
2022-12-25T20:59:49.301Z,6.64
2022-12-25T21:02:35.042Z,6.35
2022-12-25T21:05:03.716Z,6.36
2022-12-25T21:07:30.395Z,6.61
2022-12-25T21:09:57.058Z,6.59
2022-12-25T21:12:23.717Z,6.41
2022-12-25T21:14:50.729Z,6.51
2022-12-25T21:17:17.846Z,5.99
2022-12-25T21:19:44.524Z,5.81
2022-12-25T21:22:11.238Z,5.39
2022-12-25T21:24:38.054Z,5.46
2022-12-25T21:27:04.743Z,5.45
2022-12-25T21:29:31.512Z,5.80
2022-12-25T21:32:16.690Z,5.28
2022-12-25T21:34:43.472Z,5.18
2022-12-25T21:37:10.130Z,5.12
2022-12-25T21:39:37.028Z,4.88
2022-12-25T21:42:04.727Z,4.87
2022-12-25T21:44:31.517Z,5.12
2022-12-25T21:46:58.179Z,4.92
2022-12-25T21:49:43.620Z,4.92
2022-12-25T21:52:11.057Z,4.95
2022-12-25T21:54:37.886Z,4.87
2022-12-25T21:57:04.955Z,4.92
2022-12-25T21:59:31.634Z,4.70
2022-12-25T22:01:59.653Z,4.84
2022-12-25T22:04:26.727Z,4.80
2022-12-25T22:07:11.919Z,4.55
2022-12-25T22:09:38.709Z,4.64
2022-12-25T22:12:28.551Z,4.56
2022-12-25T22:15:03.131Z,4.65
2022-12-25T22:17:53.309Z,4.81
2022-12-25T22:20:23.275Z,4.41
2022-12-25T22:22:50.235Z,4.51
2022-12-25T22:25:17.930Z,4.43
2022-12-25T22:27:46.231Z,4.47
2022-12-25T22:30:16.712Z,4.43
2022-12-25T22:32:43.474Z,4.27
2022-12-25T22:35:12.538Z,4.14
2022-12-25T22:37:40.603Z,4.25
2022-12-25T22:40:09.128Z,4.33
2022-12-25T22:42:35.996Z,4.42
2022-12-25T22:45:03.748Z,4.26
2022-12-25T22:47:30.540Z,4.43
2022-12-25T22:49:57.322Z,4.47
2022-12-25T22:52:24.065Z,4.12
2022-12-25T22:54:50.733Z,3.94
2022-12-25T22:57:17.412Z,4.16
2022-12-25T22:59:44.307Z,4.16
2022-12-25T23:02:11.152Z,4.19
2022-12-25T23:04:37.894Z,4.16
2022-12-25T23:07:05.576Z,4.18
2022-12-25T23:09:32.227Z,3.94
2022-12-25T23:11:59.234Z,3.97
2022-12-25T23:14:39.031Z,4.16
2022-12-25T23:17:33.125Z,4.07
2022-12-25T23:20:19.444Z,4.34
2022-12-25T23:23:05.594Z,4.42
2022-12-25T23:25:52.756Z,4.33
2022-12-25T23:28:39.887Z,4.23
2022-12-25T23:31:07.172Z,4.51
2022-12-25T23:33:34.134Z,4.70
2022-12-25T23:36:01.015Z,4.56
2022-12-25T23:38:27.762Z,5.05
2022-12-25T23:40:54.504Z,4.88
2022-12-25T23:43:21.597Z,5.04
2022-12-25T23:45:48.296Z,4.93
2022-12-25T23:48:14.961Z,5.12
2022-12-25T23:50:41.716Z,5.19
2022-12-25T23:53:09.632Z,5.30
2022-12-25T23:55:36.600Z,5.18
2022-12-25T23:58:03.463Z,5.19
